sensor_id;sensor_type;location;lat;lon;timestamp;temperature;humidity
73149;SHT30;61346;48.930;2.266;2022-11-14T00:00:27;10.61;75.65
73149;SHT30;61346;48.930;2.266;2022-11-14T00:02:52;10.61;75.89
73149;SHT30;61346;48.930;2.266;2022-11-14T00:05:18;10.56;75.86
73149;SHT30;61346;48.930;2.266;2022-11-14T00:07:44;10.62;75.87
73149;SHT30;61346;48.930;2.266;2022-11-14T00:10:15;10.58;75.96
73149;SHT30;61346;48.930;2.266;2022-11-14T00:12:40;10.61;76.06
73149;SHT30;61346;48.930;2.266;2022-11-14T00:15:06;10.63;76.29
73149;SHT30;61346;48.930;2.266;2022-11-14T00:17:32;10.68;76.32
73149;SHT30;61346;48.930;2.266;2022-11-14T00:19:57;10.72;76.44
73149;SHT30;61346;48.930;2.266;2022-11-14T00:22:22;10.76;76.18
73149;SHT30;61346;48.930;2.266;2022-11-14T00:24:48;10.80;76.19
73149;SHT30;61346;48.930;2.266;2022-11-14T00:27:14;10.83;76.14
73149;SHT30;61346;48.930;2.266;2022-11-14T00:29:39;10.86;76.01
73149;SHT30;61346;48.930;2.266;2022-11-14T00:32:05;10.89;75.54
73149;SHT30;61346;48.930;2.266;2022-11-14T00:34:30;10.89;75.52
73149;SHT30;61346;48.930;2.266;2022-11-14T00:36:56;10.86;75.46
73149;SHT30;61346;48.930;2.266;2022-11-14T00:39:21;10.84;75.39
73149;SHT30;61346;48.930;2.266;2022-11-14T00:41:46;10.83;75.49
73149;SHT30;61346;48.930;2.266;2022-11-14T00:44:11;10.86;75.53
73149;SHT30;61346;48.930;2.266;2022-11-14T00:46:37;10.84;75.46
73149;SHT30;61346;48.930;2.266;2022-11-14T00:49:03;10.83;75.52
73149;SHT30;61346;48.930;2.266;2022-11-14T00:51:28;10.84;75.55
73149;SHT30;61346;48.930;2.266;2022-11-14T00:53:53;10.84;75.40
73149;SHT30;61346;48.930;2.266;2022-11-14T00:56:19;10.86;75.65
73149;SHT30;61346;48.930;2.266;2022-11-14T00:58:44;10.86;75.66
73149;SHT30;61346;48.930;2.266;2022-11-14T01:01:09;10.88;75.38
73149;SHT30;61346;48.930;2.266;2022-11-14T01:03:34;10.89;75.66
73149;SHT30;61346;48.930;2.266;2022-11-14T01:06:05;10.89;75.58
73149;SHT30;61346;48.930;2.266;2022-11-14T01:08:31;10.88;75.24
73149;SHT30;61346;48.930;2.266;2022-11-14T01:10:56;10.88;75.35
73149;SHT30;61346;48.930;2.266;2022-11-14T01:13:22;10.86;75.54
73149;SHT30;61346;48.930;2.266;2022-11-14T01:15:48;10.89;75.66
73149;SHT30;61346;48.930;2.266;2022-11-14T01:18:17;10.90;75.50
73149;SHT30;61346;48.930;2.266;2022-11-14T01:20:44;10.90;75.53
73149;SHT30;61346;48.930;2.266;2022-11-14T01:23:11;10.92;75.39
73149;SHT30;61346;48.930;2.266;2022-11-14T01:25:39;10.89;75.48
73149;SHT30;61346;48.930;2.266;2022-11-14T01:28:09;10.92;75.48
73149;SHT30;61346;48.930;2.266;2022-11-14T01:30:36;10.90;75.38
73149;SHT30;61346;48.930;2.266;2022-11-14T01:33:01;10.92;75.41
73149;SHT30;61346;48.930;2.266;2022-11-14T01:35:27;10.95;75.42
73149;SHT30;61346;48.930;2.266;2022-11-14T01:37:52;10.93;75.44
73149;SHT30;61346;48.930;2.266;2022-11-14T01:40:18;10.93;75.34
73149;SHT30;61346;48.930;2.266;2022-11-14T01:46:04;10.95;75.36
73149;SHT30;61346;48.930;2.266;2022-11-14T01:51:04;10.92;75.27
73149;SHT30;61346;48.930;2.266;2022-11-14T01:53:35;10.89;75.25
73149;SHT30;61346;48.930;2.266;2022-11-14T01:56:03;10.86;75.36
73149;SHT30;61346;48.930;2.266;2022-11-14T01:58:30;10.86;75.25
73149;SHT30;61346;48.930;2.266;2022-11-14T02:00:57;10.82;75.13
73149;SHT30;61346;48.930;2.266;2022-11-14T02:03:22;10.82;75.20
73149;SHT30;61346;48.930;2.266;2022-11-14T02:05:49;10.77;75.19
73149;SHT30;61346;48.930;2.266;2022-11-14T02:08:15;10.75;75.36
73149;SHT30;61346;48.930;2.266;2022-11-14T02:10:42;10.72;75.52
73149;SHT30;61346;48.930;2.266;2022-11-14T02:13:07;10.72;75.56
73149;SHT30;61346;48.930;2.266;2022-11-14T02:15:33;10.73;75.66
73149;SHT30;61346;48.930;2.266;2022-11-14T02:18:00;10.73;75.68
73149;SHT30;61346;48.930;2.266;2022-11-14T02:20:27;10.73;75.62
73149;SHT30;61346;48.930;2.266;2022-11-14T02:22:53;10.75;75.67
73149;SHT30;61346;48.930;2.266;2022-11-14T02:25:20;10.76;75.66
73149;SHT30;61346;48.930;2.266;2022-11-14T02:27:45;10.79;75.55
73149;SHT30;61346;48.930;2.266;2022-11-14T02:30:14;10.76;75.58
73149;SHT30;61346;48.930;2.266;2022-11-14T02:32:39;10.76;75.62
73149;SHT30;61346;48.930;2.266;2022-11-14T02:35:05;10.73;75.68
73149;SHT30;61346;48.930;2.266;2022-11-14T02:37:30;10.77;75.51
73149;SHT30;61346;48.930;2.266;2022-11-14T02:39:56;10.76;75.41
73149;SHT30;61346;48.930;2.266;2022-11-14T02:42:21;10.76;75.57
73149;SHT30;61346;48.930;2.266;2022-11-14T02:44:46;10.75;75.66
73149;SHT30;61346;48.930;2.266;2022-11-14T02:47:12;10.79;75.75
73149;SHT30;61346;48.930;2.266;2022-11-14T02:49:37;10.86;75.70
73149;SHT30;61346;48.930;2.266;2022-11-14T02:52:03;10.86;75.44
73149;SHT30;61346;48.930;2.266;2022-11-14T02:54:28;10.83;75.40
73149;SHT30;61346;48.930;2.266;2022-11-14T02:56:53;10.79;75.30
73149;SHT30;61346;48.930;2.266;2022-11-14T02:59:19;10.79;75.35
73149;SHT30;61346;48.930;2.266;2022-11-14T03:01:44;10.73;75.31
73149;SHT30;61346;48.930;2.266;2022-11-14T03:04:09;10.75;75.37
73149;SHT30;61346;48.930;2.266;2022-11-14T03:06:35;10.72;75.51
73149;SHT30;61346;48.930;2.266;2022-11-14T03:09:01;10.68;75.48
73149;SHT30;61346;48.930;2.266;2022-11-14T03:11:26;10.69;75.49
73149;SHT30;61346;48.930;2.266;2022-11-14T03:13:51;10.66;75.40
73149;SHT30;61346;48.930;2.266;2022-11-14T03:16:17;10.65;75.46
73149;SHT30;61346;48.930;2.266;2022-11-14T03:18:42;10.63;75.63
73149;SHT30;61346;48.930;2.266;2022-11-14T03:21:11;10.65;75.52
73149;SHT30;61346;48.930;2.266;2022-11-14T03:23:37;10.63;75.57
73149;SHT30;61346;48.930;2.266;2022-11-14T03:26:04;10.59;75.64
73149;SHT30;61346;48.930;2.266;2022-11-14T03:28:30;10.58;75.50
73149;SHT30;61346;48.930;2.266;2022-11-14T03:30:56;10.59;75.63
73149;SHT30;61346;48.930;2.266;2022-11-14T03:33:22;10.59;75.52
73149;SHT30;61346;48.930;2.266;2022-11-14T03:35:49;10.55;75.64
73149;SHT30;61346;48.930;2.266;2022-11-14T03:38:15;10.52;75.43
73149;SHT30;61346;48.930;2.266;2022-11-14T03:40:40;10.48;75.46
73149;SHT30;61346;48.930;2.266;2022-11-14T03:43:06;10.44;75.65
73149;SHT30;61346;48.930;2.266;2022-11-14T03:45:31;10.42;75.81
73149;SHT30;61346;48.930;2.266;2022-11-14T03:47:56;10.44;75.76
73149;SHT30;61346;48.930;2.266;2022-11-14T03:50:22;10.44;75.94
73149;SHT30;61346;48.930;2.266;2022-11-14T03:52:48;10.45;76.11
73149;SHT30;61346;48.930;2.266;2022-11-14T03:55:14;10.48;76.00
73149;SHT30;61346;48.930;2.266;2022-11-14T03:57:39;10.49;76.09
73149;SHT30;61346;48.930;2.266;2022-11-14T04:00:05;10.51;76.11
73149;SHT30;61346;48.930;2.266;2022-11-14T04:02:30;10.54;76.10
73149;SHT30;61346;48.930;2.266;2022-11-14T04:04:56;10.54;75.90
73149;SHT30;61346;48.930;2.266;2022-11-14T04:07:21;10.52;75.94
73149;SHT30;61346;48.930;2.266;2022-11-14T04:09:47;10.58;76.04
73149;SHT30;61346;48.930;2.266;2022-11-14T04:12:12;10.56;76.02
73149;SHT30;61346;48.930;2.266;2022-11-14T04:14:38;10.59;76.11
73149;SHT30;61346;48.930;2.266;2022-11-14T04:17:03;10.63;76.02
73149;SHT30;61346;48.930;2.266;2022-11-14T04:19:28;10.62;76.00
73149;SHT30;61346;48.930;2.266;2022-11-14T04:21:54;10.62;75.96
73149;SHT30;61346;48.930;2.266;2022-11-14T04:24:19;10.61;75.70
73149;SHT30;61346;48.930;2.266;2022-11-14T04:26:45;10.59;75.62
73149;SHT30;61346;48.930;2.266;2022-11-14T04:29:10;10.56;75.94
73149;SHT30;61346;48.930;2.266;2022-11-14T04:31:37;10.55;75.87
73149;SHT30;61346;48.930;2.266;2022-11-14T04:34:03;10.56;75.86
73149;SHT30;61346;48.930;2.266;2022-11-14T04:36:28;10.55;75.91
73149;SHT30;61346;48.930;2.266;2022-11-14T04:38:54;10.55;75.66
73149;SHT30;61346;48.930;2.266;2022-11-14T04:41:19;10.52;75.75
73149;SHT30;61346;48.930;2.266;2022-11-14T04:43:44;10.52;75.84
73149;SHT30;61346;48.930;2.266;2022-11-14T04:46:09;10.49;75.86
73149;SHT30;61346;48.930;2.266;2022-11-14T04:48:35;10.45;75.77
73149;SHT30;61346;48.930;2.266;2022-11-14T04:51:00;10.44;76.03
73149;SHT30;61346;48.930;2.266;2022-11-14T04:53:25;10.40;76.10
73149;SHT30;61346;48.930;2.266;2022-11-14T04:55:51;10.40;76.31
73149;SHT30;61346;48.930;2.266;2022-11-14T04:58:16;10.41;76.06
73149;SHT30;61346;48.930;2.266;2022-11-14T05:00:41;10.40;76.21
73149;SHT30;61346;48.930;2.266;2022-11-14T05:03:07;10.42;76.09
73149;SHT30;61346;48.930;2.266;2022-11-14T05:05:32;10.42;76.13
73149;SHT30;61346;48.930;2.266;2022-11-14T05:07:58;10.38;76.26
73149;SHT30;61346;48.930;2.266;2022-11-14T05:10:23;10.37;76.37
73149;SHT30;61346;48.930;2.266;2022-11-14T05:12:52;10.38;76.39
73149;SHT30;61346;48.930;2.266;2022-11-14T05:15:18;10.38;76.35
73149;SHT30;61346;48.930;2.266;2022-11-14T05:17:43;10.40;76.54
73149;SHT30;61346;48.930;2.266;2022-11-14T05:20:09;10.38;76.62
73149;SHT30;61346;48.930;2.266;2022-11-14T05:22:34;10.38;76.75
73149;SHT30;61346;48.930;2.266;2022-11-14T05:25:00;10.40;76.75
73149;SHT30;61346;48.930;2.266;2022-11-14T05:27:25;10.45;76.98
73149;SHT30;61346;48.930;2.266;2022-11-14T05:29:51;10.46;77.00
73149;SHT30;61346;48.930;2.266;2022-11-14T05:32:16;10.48;76.88
73149;SHT30;61346;48.930;2.266;2022-11-14T05:34:41;10.51;76.95
73149;SHT30;61346;48.930;2.266;2022-11-14T05:37:07;10.54;76.99
73149;SHT30;61346;48.930;2.266;2022-11-14T05:39:32;10.55;76.84
73149;SHT30;61346;48.930;2.266;2022-11-14T05:41:58;10.59;76.69
73149;SHT30;61346;48.930;2.266;2022-11-14T05:44:23;10.61;76.78
73149;SHT30;61346;48.930;2.266;2022-11-14T05:46:48;10.63;76.78
73149;SHT30;61346;48.930;2.266;2022-11-14T05:49:14;10.65;76.72
73149;SHT30;61346;48.930;2.266;2022-11-14T05:51:39;10.68;76.68
73149;SHT30;61346;48.930;2.266;2022-11-14T05:54:04;10.69;76.67
73149;SHT30;61346;48.930;2.266;2022-11-14T05:56:30;10.71;76.59
73149;SHT30;61346;48.930;2.266;2022-11-14T05:58:55;10.71;76.60
73149;SHT30;61346;48.930;2.266;2022-11-14T06:01:20;10.75;76.57
73149;SHT30;61346;48.930;2.266;2022-11-14T06:03:47;10.76;76.51
73149;SHT30;61346;48.930;2.266;2022-11-14T06:06:17;10.77;76.53
73149;SHT30;61346;48.930;2.266;2022-11-14T06:08:43;10.77;76.36
73149;SHT30;61346;48.930;2.266;2022-11-14T06:11:12;10.77;76.38
73149;SHT30;61346;48.930;2.266;2022-11-14T06:13:38;10.79;76.38
73149;SHT30;61346;48.930;2.266;2022-11-14T06:16:06;10.79;76.49
73149;SHT30;61346;48.930;2.266;2022-11-14T06:18:32;10.82;76.48
73149;SHT30;61346;48.930;2.266;2022-11-14T06:21:03;10.79;76.66
73149;SHT30;61346;48.930;2.266;2022-11-14T06:23:29;10.82;76.55
73149;SHT30;61346;48.930;2.266;2022-11-14T06:26:02;10.80;76.61
73149;SHT30;61346;48.930;2.266;2022-11-14T06:28:28;10.84;76.64
73149;SHT30;61346;48.930;2.266;2022-11-14T06:30:58;10.84;76.48
73149;SHT30;61346;48.930;2.266;2022-11-14T06:33:24;10.83;76.28
73149;SHT30;61346;48.930;2.266;2022-11-14T06:35:50;10.86;76.56
73149;SHT30;61346;48.930;2.266;2022-11-14T06:38:15;10.86;76.44
73149;SHT30;61346;48.930;2.266;2022-11-14T06:40:40;10.84;76.50
73149;SHT30;61346;48.930;2.266;2022-11-14T06:43:06;10.84;76.64
73149;SHT30;61346;48.930;2.266;2022-11-14T06:45:31;10.86;76.63
73149;SHT30;61346;48.930;2.266;2022-11-14T06:47:57;10.86;76.67
73149;SHT30;61346;48.930;2.266;2022-11-14T06:50:23;10.86;76.77
73149;SHT30;61346;48.930;2.266;2022-11-14T06:52:49;10.89;76.84
73149;SHT30;61346;48.930;2.266;2022-11-14T06:56:09;10.92;76.73
73149;SHT30;61346;48.930;2.266;2022-11-14T06:59:01;10.96;76.83
73149;SHT30;61346;48.930;2.266;2022-11-14T07:05:04;10.97;76.64
73149;SHT30;61346;48.930;2.266;2022-11-14T07:07:38;10.97;76.70
73149;SHT30;61346;48.930;2.266;2022-11-14T07:10:13;11.00;76.90
73149;SHT30;61346;48.930;2.266;2022-11-14T07:12:39;10.97;76.83
73149;SHT30;61346;48.930;2.266;2022-11-14T07:15:05;10.99;76.71
73149;SHT30;61346;48.930;2.266;2022-11-14T07:17:34;10.97;76.44
73149;SHT30;61346;48.930;2.266;2022-11-14T07:20:02;10.95;76.44
73149;SHT30;61346;48.930;2.266;2022-11-14T07:22:44;10.93;76.46
73149;SHT30;61346;48.930;2.266;2022-11-14T07:25:30;10.93;76.48
73149;SHT30;61346;48.930;2.266;2022-11-14T07:28:24;10.86;76.41
73149;SHT30;61346;48.930;2.266;2022-11-14T07:31:01;10.83;76.60
73149;SHT30;61346;48.930;2.266;2022-11-14T07:36:07;10.69;76.54
73149;SHT30;61346;48.930;2.266;2022-11-14T07:55:22;10.61;77.14
73149;SHT30;61346;48.930;2.266;2022-11-14T07:57:51;10.59;76.94
73149;SHT30;61346;48.930;2.266;2022-11-14T08:00:17;10.61;76.97
73149;SHT30;61346;48.930;2.266;2022-11-14T08:02:44;10.65;77.14
73149;SHT30;61346;48.930;2.266;2022-11-14T08:05:12;10.69;76.74
73149;SHT30;61346;48.930;2.266;2022-11-14T08:07:37;10.69;76.75
73149;SHT30;61346;48.930;2.266;2022-11-14T08:10:04;10.72;76.82
73149;SHT30;61346;48.930;2.266;2022-11-14T08:12:30;10.72;76.80
73149;SHT30;61346;48.930;2.266;2022-11-14T08:14:55;10.76;76.72
73149;SHT30;61346;48.930;2.266;2022-11-14T08:17:22;10.77;76.71
73149;SHT30;61346;48.930;2.266;2022-11-14T08:19:47;10.82;76.58
73149;SHT30;61346;48.930;2.266;2022-11-14T08:22:13;10.84;76.66
73149;SHT30;61346;48.930;2.266;2022-11-14T08:24:38;10.88;76.55
73149;SHT30;61346;48.930;2.266;2022-11-14T08:27:04;10.93;76.65
73149;SHT30;61346;48.930;2.266;2022-11-14T08:29:29;11.00;76.40
73149;SHT30;61346;48.930;2.266;2022-11-14T08:31:55;11.01;76.47
73149;SHT30;61346;48.930;2.266;2022-11-14T08:34:23;11.09;76.46
73149;SHT30;61346;48.930;2.266;2022-11-14T08:36:49;11.11;76.16
73149;SHT30;61346;48.930;2.266;2022-11-14T08:39:17;11.17;76.33
73149;SHT30;61346;48.930;2.266;2022-11-14T08:41:43;11.23;76.28
73149;SHT30;61346;48.930;2.266;2022-11-14T08:44:11;11.30;76.01
73149;SHT30;61346;48.930;2.266;2022-11-14T08:46:36;11.31;75.58
73149;SHT30;61346;48.930;2.266;2022-11-14T08:49:02;11.34;75.81
73149;SHT30;61346;48.930;2.266;2022-11-14T08:51:27;11.38;75.69
73149;SHT30;61346;48.930;2.266;2022-11-14T08:53:53;11.42;75.52
73149;SHT30;61346;48.930;2.266;2022-11-14T08:56:18;11.50;75.70
73149;SHT30;61346;48.930;2.266;2022-11-14T08:58:43;11.54;75.58
73149;SHT30;61346;48.930;2.266;2022-11-14T09:01:09;11.57;75.18
73149;SHT30;61346;48.930;2.266;2022-11-14T09:03:34;11.64;75.29
73149;SHT30;61346;48.930;2.266;2022-11-14T09:06:01;11.71;75.56
73149;SHT30;61346;48.930;2.266;2022-11-14T09:08:27;11.79;75.37
73149;SHT30;61346;48.930;2.266;2022-11-14T09:10:53;11.86;74.87
73149;SHT30;61346;48.930;2.266;2022-11-14T09:13:18;11.93;74.62
73149;SHT30;61346;48.930;2.266;2022-11-14T09:15:43;11.99;74.47
73149;SHT30;61346;48.930;2.266;2022-11-14T09:18:10;12.03;74.48
73149;SHT30;61346;48.930;2.266;2022-11-14T09:20:35;12.10;74.60
73149;SHT30;61346;48.930;2.266;2022-11-14T09:23:01;12.17;74.69
73149;SHT30;61346;48.930;2.266;2022-11-14T09:25:28;12.27;74.74
73149;SHT30;61346;48.930;2.266;2022-11-14T09:27:54;12.37;74.30
73149;SHT30;61346;48.930;2.266;2022-11-14T09:30:20;12.40;73.14
73149;SHT30;61346;48.930;2.266;2022-11-14T09:32:47;12.37;73.35
73149;SHT30;61346;48.930;2.266;2022-11-14T09:35:12;12.36;73.57
73149;SHT30;61346;48.930;2.266;2022-11-14T09:37:38;12.38;73.56
73149;SHT30;61346;48.930;2.266;2022-11-14T09:40:04;12.41;73.94
73149;SHT30;61346;48.930;2.266;2022-11-14T09:45:17;12.62;73.83
73149;SHT30;61346;48.930;2.266;2022-11-14T09:47:52;12.71;73.19
73149;SHT30;61346;48.930;2.266;2022-11-14T09:50:23;12.76;72.92
73149;SHT30;61346;48.930;2.266;2022-11-14T09:52:59;12.76;72.68
73149;SHT30;61346;48.930;2.266;2022-11-14T09:55:29;12.75;72.67
73149;SHT30;61346;48.930;2.266;2022-11-14T09:57:55;12.72;72.38
73149;SHT30;61346;48.930;2.266;2022-11-14T10:00:23;12.65;72.21
73149;SHT30;61346;48.930;2.266;2022-11-14T10:11:45;12.37;73.12
73149;SHT30;61346;48.930;2.266;2022-11-14T10:25:55;12.41;73.31
73149;SHT30;61346;48.930;2.266;2022-11-14T10:28:38;12.47;73.11
73149;SHT30;61346;48.930;2.266;2022-11-14T10:34:08;12.48;72.81
73149;SHT30;61346;48.930;2.266;2022-11-14T10:39:28;12.58;73.25
73149;SHT30;61346;48.930;2.266;2022-11-14T10:42:00;12.62;73.02
73149;SHT30;61346;48.930;2.266;2022-11-14T10:44:35;12.69;72.99
73149;SHT30;61346;48.930;2.266;2022-11-14T10:47:07;12.74;72.25
73149;SHT30;61346;48.930;2.266;2022-11-14T10:49:35;12.75;72.20
73149;SHT30;61346;48.930;2.266;2022-11-14T10:52:05;12.78;72.25
73149;SHT30;61346;48.930;2.266;2022-11-14T10:54:37;12.81;72.01
73149;SHT30;61346;48.930;2.266;2022-11-14T10:57:13;12.82;72.32
73149;SHT30;61346;48.930;2.266;2022-11-14T10:59:39;12.89;72.47
73149;SHT30;61346;48.930;2.266;2022-11-14T11:02:04;12.93;72.56
73149;SHT30;61346;48.930;2.266;2022-11-14T11:05:18;13.02;72.52
73149;SHT30;61346;48.930;2.266;2022-11-14T11:07:44;13.12;71.85
73149;SHT30;61346;48.930;2.266;2022-11-14T11:10:47;13.22;72.21
73149;SHT30;61346;48.930;2.266;2022-11-14T11:13:56;13.32;72.00
73149;SHT30;61346;48.930;2.266;2022-11-14T11:17:02;13.43;72.08
73149;SHT30;61346;48.930;2.266;2022-11-14T11:26:41;13.71;71.24
73149;SHT30;61346;48.930;2.266;2022-11-14T11:32:06;14.27;71.15
73149;SHT30;61346;48.930;2.266;2022-11-14T11:34:35;14.70;70.84
73149;SHT30;61346;48.930;2.266;2022-11-14T11:37:13;14.95;69.23
73149;SHT30;61346;48.930;2.266;2022-11-14T11:39:43;15.18;69.97
73149;SHT30;61346;48.930;2.266;2022-11-14T11:42:18;15.39;68.99
73149;SHT30;61346;48.930;2.266;2022-11-14T11:45:11;15.57;69.33
73149;SHT30;61346;48.930;2.266;2022-11-14T11:48:12;15.74;66.64
73149;SHT30;61346;48.930;2.266;2022-11-14T11:56:18;16.45;68.25
73149;SHT30;61346;48.930;2.266;2022-11-14T12:02:26;17.18;65.31
73149;SHT30;61346;48.930;2.266;2022-11-14T12:05:15;17.14;64.76
73149;SHT30;61346;48.930;2.266;2022-11-14T12:08:01;17.08;65.60
73149;SHT30;61346;48.930;2.266;2022-11-14T12:10:35;17.08;64.54
73149;SHT30;61346;48.930;2.266;2022-11-14T12:24:53;17.42;64.05
73149;SHT30;61346;48.930;2.266;2022-11-14T12:30:11;17.60;64.94
73149;SHT30;61346;48.930;2.266;2022-11-14T12:32:49;17.56;64.37
73149;SHT30;61346;48.930;2.266;2022-11-14T12:35:25;17.51;64.17
73149;SHT30;61346;48.930;2.266;2022-11-14T12:37:54;17.45;62.91
73149;SHT30;61346;48.930;2.266;2022-11-14T12:40:24;17.33;63.77
73149;SHT30;61346;48.930;2.266;2022-11-14T12:42:50;17.28;64.17
73149;SHT30;61346;48.930;2.266;2022-11-14T12:50:51;17.26;64.50
73149;SHT30;61346;48.930;2.266;2022-11-14T12:53:36;17.26;63.15
73149;SHT30;61346;48.930;2.266;2022-11-14T12:59:16;17.11;64.16
73149;SHT30;61346;48.930;2.266;2022-11-14T13:12:38;16.92;65.58
73149;SHT30;61346;48.930;2.266;2022-11-14T13:18:36;17.01;65.58
73149;SHT30;61346;48.930;2.266;2022-11-14T13:21:32;17.01;64.95
73149;SHT30;61346;48.930;2.266;2022-11-14T13:24:11;17.02;64.91
73149;SHT30;61346;48.930;2.266;2022-11-14T13:26:45;17.07;65.83
73149;SHT30;61346;48.930;2.266;2022-11-14T13:32:09;17.28;65.59
73149;SHT30;61346;48.930;2.266;2022-11-14T13:35:04;17.47;64.90
73149;SHT30;61346;48.930;2.266;2022-11-14T13:37:43;17.54;64.92
73149;SHT30;61346;48.930;2.266;2022-11-14T13:40:27;17.59;65.60
73149;SHT30;61346;48.930;2.266;2022-11-14T13:43:08;17.67;64.92
73149;SHT30;61346;48.930;2.266;2022-11-14T13:51:14;17.59;65.23
73149;SHT30;61346;48.930;2.266;2022-11-14T13:53:40;17.73;65.14
73149;SHT30;61346;48.930;2.266;2022-11-14T13:59:09;18.25;65.84
73149;SHT30;61346;48.930;2.266;2022-11-14T14:02:37;18.48;64.81
73149;SHT30;61346;48.930;2.266;2022-11-14T14:10:33;19.15;64.23
73149;SHT30;61346;48.930;2.266;2022-11-14T14:13:13;19.26;64.66
73149;SHT30;61346;48.930;2.266;2022-11-14T14:16:01;19.41;64.47
73149;SHT30;61346;48.930;2.266;2022-11-14T14:18:52;19.53;63.79
73149;SHT30;61346;48.930;2.266;2022-11-14T14:21:43;19.48;63.50
73149;SHT30;61346;48.930;2.266;2022-11-14T14:27:33;18.96;63.79
73149;SHT30;61346;48.930;2.266;2022-11-14T14:30:14;18.69;64.17
73149;SHT30;61346;48.930;2.266;2022-11-14T14:32:40;18.42;64.44
73149;SHT30;61346;48.930;2.266;2022-11-14T14:35:24;18.21;65.10
73149;SHT30;61346;48.930;2.266;2022-11-14T14:37:54;18.02;65.37
73149;SHT30;61346;48.930;2.266;2022-11-14T14:40:30;17.93;65.54
73149;SHT30;61346;48.930;2.266;2022-11-14T14:42:59;17.80;65.84
73149;SHT30;61346;48.930;2.266;2022-11-14T14:45:27;17.69;66.18
73149;SHT30;61346;48.930;2.266;2022-11-14T14:48:12;17.60;66.29
73149;SHT30;61346;48.930;2.266;2022-11-14T14:50:47;17.56;66.77
73149;SHT30;61346;48.930;2.266;2022-11-14T14:53:39;17.50;66.96
73149;SHT30;61346;48.930;2.266;2022-11-14T14:56:25;17.47;66.85
73149;SHT30;61346;48.930;2.266;2022-11-14T15:27:19;16.64;69.16
73149;SHT30;61346;48.930;2.266;2022-11-14T15:43:53;16.42;70.67
73149;SHT30;61346;48.930;2.266;2022-11-14T15:53:05;16.23;71.23
73149;SHT30;61346;48.930;2.266;2022-11-14T15:55:31;16.22;71.02
73149;SHT30;61346;48.930;2.266;2022-11-14T15:57:57;16.18;71.14
73149;SHT30;61346;48.930;2.266;2022-11-14T16:01:25;16.15;71.33
73149;SHT30;61346;48.930;2.266;2022-11-14T16:03:34;16.09;71.81
73149;SHT30;61346;48.930;2.266;2022-11-14T16:05:59;16.01;72.24
73149;SHT30;61346;48.930;2.266;2022-11-14T16:08:27;15.94;72.43
73149;SHT30;61346;48.930;2.266;2022-11-14T16:10:52;15.87;73.16
73149;SHT30;61346;48.930;2.266;2022-11-14T16:13:18;15.85;73.46
73149;SHT30;61346;48.930;2.266;2022-11-14T16:15:43;15.78;73.25
73149;SHT30;61346;48.930;2.266;2022-11-14T16:18:10;15.75;73.18
73149;SHT30;61346;48.930;2.266;2022-11-14T16:20:38;15.73;73.45
73149;SHT30;61346;48.930;2.266;2022-11-14T16:23:06;15.71;73.20
73149;SHT30;61346;48.930;2.266;2022-11-14T16:25:42;15.70;73.45
73149;SHT30;61346;48.930;2.266;2022-11-14T16:28:21;15.70;73.35
73149;SHT30;61346;48.930;2.266;2022-11-14T16:30:46;15.71;73.31
73149;SHT30;61346;48.930;2.266;2022-11-14T16:33:12;15.73;73.74
73149;SHT30;61346;48.930;2.266;2022-11-14T16:35:45;15.73;73.67
73149;SHT30;61346;48.930;2.266;2022-11-14T16:38:36;15.73;73.58
73149;SHT30;61346;48.930;2.266;2022-11-14T16:41:10;15.74;74.06
73149;SHT30;61346;48.930;2.266;2022-11-14T16:47:10;15.78;73.88
73149;SHT30;61346;48.930;2.266;2022-11-14T16:49:45;15.78;73.88
73149;SHT30;61346;48.930;2.266;2022-11-14T16:58:55;15.85;73.94
73149;SHT30;61346;48.930;2.266;2022-11-14T17:01:21;15.85;73.92
73149;SHT30;61346;48.930;2.266;2022-11-14T17:03:46;15.88;73.86
73149;SHT30;61346;48.930;2.266;2022-11-14T17:06:16;15.90;73.62
73149;SHT30;61346;48.930;2.266;2022-11-14T17:08:55;15.91;73.72
73149;SHT30;61346;48.930;2.266;2022-11-14T17:11:30;15.92;73.74
73149;SHT30;61346;48.930;2.266;2022-11-14T17:13:55;15.91;73.84
73149;SHT30;61346;48.930;2.266;2022-11-14T17:16:21;15.92;73.86
73149;SHT30;61346;48.930;2.266;2022-11-14T17:18:50;15.94;73.88
73149;SHT30;61346;48.930;2.266;2022-11-14T17:21:22;15.94;74.07
73149;SHT30;61346;48.930;2.266;2022-11-14T17:24:21;15.94;73.98
73149;SHT30;61346;48.930;2.266;2022-11-14T17:26:45;15.92;74.24
73149;SHT30;61346;48.930;2.266;2022-11-14T17:29:11;15.92;74.05
73149;SHT30;61346;48.930;2.266;2022-11-14T17:31:37;15.92;73.95
73149;SHT30;61346;48.930;2.266;2022-11-14T17:34:08;15.94;74.30
73149;SHT30;61346;48.930;2.266;2022-11-14T17:36:34;15.95;74.67
73149;SHT30;61346;48.930;2.266;2022-11-14T17:38:59;15.91;74.65
73149;SHT30;61346;48.930;2.266;2022-11-14T17:41:25;15.94;74.72
73149;SHT30;61346;48.930;2.266;2022-11-14T17:43:52;15.92;74.93
73149;SHT30;61346;48.930;2.266;2022-11-14T17:46:22;15.92;74.60
73149;SHT30;61346;48.930;2.266;2022-11-14T17:48:51;15.94;74.59
73149;SHT30;61346;48.930;2.266;2022-11-14T17:51:16;15.95;74.63
73149;SHT30;61346;48.930;2.266;2022-11-14T17:53:42;15.97;74.48
73149;SHT30;61346;48.930;2.266;2022-11-14T17:56:23;15.98;74.63
73149;SHT30;61346;48.930;2.266;2022-11-14T17:59:02;15.94;74.54
73149;SHT30;61346;48.930;2.266;2022-11-14T18:01:27;15.92;74.50
73149;SHT30;61346;48.930;2.266;2022-11-14T18:03:55;15.91;74.89
73149;SHT30;61346;48.930;2.266;2022-11-14T18:06:20;15.92;74.90
73149;SHT30;61346;48.930;2.266;2022-11-14T18:08:46;15.90;75.14
73149;SHT30;61346;48.930;2.266;2022-11-14T18:11:13;15.91;75.16
73149;SHT30;61346;48.930;2.266;2022-11-14T18:13:40;15.92;75.30
73149;SHT30;61346;48.930;2.266;2022-11-14T18:16:09;15.91;75.13
73149;SHT30;61346;48.930;2.266;2022-11-14T18:18:35;15.95;75.03
73149;SHT30;61346;48.930;2.266;2022-11-14T18:21:25;15.95;75.12
73149;SHT30;61346;48.930;2.266;2022-11-14T18:23:52;15.92;75.13
73149;SHT30;61346;48.930;2.266;2022-11-14T18:26:19;15.92;75.16
73149;SHT30;61346;48.930;2.266;2022-11-14T18:31:21;15.85;75.39
73149;SHT30;61346;48.930;2.266;2022-11-14T18:33:47;15.91;75.42
73149;SHT30;61346;48.930;2.266;2022-11-14T18:36:13;15.90;75.43
73149;SHT30;61346;48.930;2.266;2022-11-14T18:38:41;15.91;75.45
73149;SHT30;61346;48.930;2.266;2022-11-14T18:41:12;15.91;75.68
73149;SHT30;61346;48.930;2.266;2022-11-14T18:43:38;15.94;75.66
73149;SHT30;61346;48.930;2.266;2022-11-14T18:46:13;15.94;75.62
73149;SHT30;61346;48.930;2.266;2022-11-14T18:48:43;15.94;75.40
73149;SHT30;61346;48.930;2.266;2022-11-14T18:51:32;15.92;75.76
73149;SHT30;61346;48.930;2.266;2022-11-14T18:54:11;15.91;75.51
73149;SHT30;61346;48.930;2.266;2022-11-14T18:56:40;15.87;75.51
73149;SHT30;61346;48.930;2.266;2022-11-14T18:59:11;15.81;75.97
73149;SHT30;61346;48.930;2.266;2022-11-14T19:01:36;15.73;76.31